AirNav   Everest Fuels
 
 1466 users online  

09W South Capitol Street Heliport
Washington, District of Columbia, USA

GOING TO WASHINGTON?


FAA INFORMATION EFFECTIVE 16 JULY 2020

Location

FAA Identifier: 09W
Lat/Long: 38-52-07.4040N 077-00-26.9130W
38-52.123400N 077-00.448550W
38.8687233,-77.0074758
(estimated)
Elevation: 10 ft. / 3.0 m (surveyed)
Variation: 09W (1985)
Time zone: UTC -4 (UTC -5 during Standard Time)
Zip code: 20398

Heliport Operations

Heliport use: Open to the public
Activation date: 04/1974
Control tower: no
ARTCC: WASHINGTON CENTER
FSS: LEESBURG FLIGHT SERVICE STATION
NOTAMs facility: DCA (NOTAM-D service available)
Attendance: MON-FRI 0700-1900, ALL SAT-SUN 1100-1900
OPEN HOLIDAYS UPON RESERVATION.
Wind indicator: lighted
Segmented circle: no
Lights: SS-SR
Beacon: white-green-yellow (heliport)
Operates sunset to sunrise.

Heliport Communications

CTAF/UNICOM: 123.05
WX ASOS at DCA (1.8 nm SW): 132.65 (703-412-8140)
WX AWOS-3 at CGS (8 nm NE): 121.225 (301-864-5497)
WX AWOS-3 at FME (17 nm NE): 123.925
WX AWOS-3PT at GAI (19 nm N): 128.275 (301-977-2971)

Nearby radio navigation aids

VOR radial/distance  VOR name  Freq  Var
DCAr077/1.5WASHINGTON VOR/DME111.0009W
ADWr309/7.6ANDREWS VORTAC113.1010W
OTTr318/15.7NOTTINGHAM VORTAC113.7010W
AMLr108/21.8ARMEL VOR/DME113.5008W
BALr233/24.3BALTIMORE VORTAC115.1011W
BRVr036/35.8BROOKE VORTAC114.5009W
FDKr160/(36.8)FREDERICK VOR109.0008W
EMIr190/37.6WESTMINSTER VORTAC117.9008W

 
NDB name  Hdg/Dist  Freq  Var  ID
OXONN020/6.233211WDCA -.. -.-. .-
GEORGETOWN133/6.632309WGTN --. - -.
DAVEE030/13.322309WDAA -.. .- .-
ELLICOTT214/27.337111WFND ..-. -. -..

Heliport Services

Fuel available: A
Airframe service: NONE
Powerplant service: NONE

Runway Information

Helipad H1

Dimensions: 60 x 60 ft. / 18 x 18 m
Surface: asphalt, in good condition
Runway edge lights: PERI
Latitude: 38-52.123400N
Longitude: 077-00.448550W
Elevation: 10.0 ft.
Traffic pattern: leftleft
Markings: , in fair condition
Approach lights: RLLS

Heliport Ownership and Management from official FAA records

Ownership: Privately-owned
Owner: SOUTH CAPITOL STREET HELIPORT, LLC
115 VALLEYVIEW RD
FAIRFIELD, CT 06824
Phone 203-856-6407
Manager: DON SCIMONELLI
1724 S CAPITAL ST SE
WASHINGTON, DC 20003
Phone 202-484-8616

Heliport Operational Statistics

Aircraft based on the field: 1
Helicopters: 1
    
Aircraft operations: avg 33/month *
50% transient general aviation
50% local general aviation
* for 12-month period ending 05 December 1997

Additional Remarks

A52-H1 75 FT LGTD BRIDGE 500 FT E; + 50 FT STACK 400 FT W; +40 FT BLDG 60 FT NE.
INGRESS & EGRESS ROUTES NE & SW OVER ANACOSTIA RIVER.
LARGE LOOSE GRAVEL SOUTH & WEST OF PAVEMENT.
FOR CD CTC POTOMAC APCH AT 866-599-3874.

Instrument Procedures

There are no published instrument procedures at 09W.

Some nearby airports with instrument procedures:

KDCA - Ronald Reagan Washington National Airport (2 nm SW)
KADW - Joint Base Andrews (7 nm SE)
KVKX - Potomac Airfield (8 nm S)
KCGS - College Park Airport (8 nm NE)
W32 - Washington Executive Airport/Hyde Field (8 nm SE)
W00 - Freeway Airport (12 nm E)
KDAA - Davison Army Airfield (12 nm SW)
2W5 - Maryland Airport (17 nm S)
KFME - Tipton Airport (17 nm NE)
KGAI - Montgomery County Airpark (19 nm N)
 
Loc | Ops | Rwys | IFR | FBO | Links
Com | Nav | Svcs | Stats | Notes
Area around 09W (South Capitol Street Heliport)
 
Road maps at: MapQuest Bing Google
 
Aerial photo
WARNING: Photo may not be current or correct
Aerial photo of 09W (South Capitol Street Heliport)
Photo courtesy of Steven Bussman
Bussman Aviation
Photo taken 29-Apr-2012
looking northeast.

Do you have a better or more recent aerial photo of South Capitol Street Heliport that you would like to share? If so, please send us your photo.

 
Sectional chart

 
Airport distance calculator
Flying to South Capitol Street Heliport? Find the distance to fly.

From to 09W

Sunrise and sunset
Times for 12-Aug-2020
 Local
(UTC-4)
 Zulu
(UTC)
Morning civil twilight05:5209:52
Sunrise06:2110:21
Sunset20:0500:05
Evening civil twilight20:3400:34

Current date and time
Zulu (UTC)  12-Aug-2020 14:51:29
Local (UTC-4)  12-Aug-2020 10:51:29
 
METAR
KDCA 
2nm SW 
121352Z 16004KT 10SM FEW080 BKN140 BKN250 27/24 A3004 RMK AO2 SLP170 T02670239
KADW 
7nm SE 
121356Z AUTO 00000KT 10SM FEW150 25/23 A3003 RMK AO2 DZB42E54 SLP174 P0000 T02540230 $
KCGS 
8nm NE 
121435Z AUTO 00000KT 10SM CLR 28/22 A3003 RMK AO1 T02810222
KDAA 
12nm SW 
121356Z AUTO 16003KT 10SM FEW008 26/23 A3004 RMK AO2 SLP175 T02560232 $
KFME 
17nm NE 
121435Z AUTO 00000KT 10SM CLR 27/23 A3005 RMK AO1
KGAI 
19nm N 
121356Z AUTO 30004KT 10SM CLR 27/23 A3006 RMK AO2 SLP186 T02720228
TAF
KDCA 
2nm SW 
121143Z 1212/1318 30006KT P6SM -SHRA BKN110 BKN250 FM121400 24004KT P6SM SCT040 BKN250 FM121900 16005KT P6SM -SHRA VCTS SCT040CB BKN090 FM130100 12004KT P6SM SCT050 BKN080 FM130900 VRB03KT 5SM -SHRA BR SCT025 OVC050 FM131300 06004KT P6SM -SHRA SCT025 OVC045
KADW 
7nm SE 
120900Z 1209/1315 20005KT 9999 -SHRA VCTS FEW050CB SCT120 BKN250 QNH2998INS BECMG 1212/1213 20008KT 9999 NSW SCT050 BKN120 BKN250 QNH3000INS BECMG 1216/1217 17006KT 9999 VCTS FEW040CB SCT050 SCT120 BKN250 QNH3000INS BECMG 1217/1218 16007KT 8000 -SHRA VCTS FEW040CB BKN050 BKN120 BKN250 QNH2998INS TEMPO 1219/1224 27010G20KT 1600 +TSRA BKN035CB OVC080 BECMG 1303/1304 14006KT 9999 NSW FEW040 SCT120 BKN250 QNH3004INS BECMG 1308/1309 08005KT 9999 VCSH BKN015 BKN120 BKN250 QNH3004INS BECMG 1313/1314 06
KDAA 
12nm SW 
120954Z 1209/1315 VRB06KT 9999 BKN040 OVC050 QNH2997INS TEMPO 1209/1212 28007KT 9000 -TSRA BKN040CB BECMG 1217/1218 VRB06KT 9000 -SHRA BKN030 QNH2998INS TEMPO 1219/1224 16015G30KT 6000 -TSRA OVC020CB BECMG 1305/1306 09006KT 9999 NSW BKN050 QNH3003INS TX32/1218Z TN23/1210Z
NOTAMs
Click for the latest NOTAMs
NOTAMs are issued by the DoD/FAA and will open in a separate window not controlled by AirNav.

 

 
 

FBO, Fuel Providers, and Aircraft Ground Support

  
 Business Name 
 
 Contact 
 
 Services / Description 
 
Fuel Prices
 
Comments
  
South Capitol Street Heliport FBO 202-484-8616
202-527-8687
[email]
Airport management, Aviation fuel, Aircraft parking (ramp or tiedown), Hangars, Hangar leasing / sales, Passenger terminal and lounge, ...

More info about South Capitol Street Heliport FBO
independent
Jet A
AS $6.96 
 Updated 16-Jul-2020
 
   write
AS=Assisted/Self Service
Update Fuel Prices
 

Would you like to see your business listed on this page?

 If your business provides an interesting product or service to pilots, flight crews, aircraft, or users of the South Capitol Street Heliport, you should consider listing it here.  To start the listing process, click on the button below
 
Add a business
 

Other Pages about South Capitol Street Heliport

Update a link
 
Copyright © AirNav, LLC. All rights reserved. Privacy Policy  Contact